チャットラパティー・シヴァージー国際空港の過去48時間の天気

チャットラパティー・シヴァージー国際空港 (Bombay / Santacruz)

現在時刻: 8/5 01:20 IST (8/4 19:50 UTC) 以下の時間は現地時間です。

過去48時間のMETAR気象情報
時間 風向 風速(m/s) 視程 気温(℃) 湿度(%) 気圧(hPa) 天気現象
5 01:00 西南西 4 2200m 29 89 995 弱い霧雨
5 00:30 南西 4 2200m 29 94 994 弱い雨
5 00:00 西南西 6 2200m 29 94 995 弱い雨
4 23:30 西 4 2100m 28 94 995 弱い雨
4 23:00 西南西 3 1500m 28 94 996
4 22:30 西 5 3000m 29 89 996 煙霧
4 22:00 西南西 6 3000m 28 94 996 煙霧
4 21:30 西 6 3000m 28 89 996 周辺でしゅう雨
4 21:00 西 6 3000m 28 94 995 煙霧
4 20:30 西 5 2500m 28 89 995 煙霧
4 20:00 西 6 2500m 28 89 995 弱い霧雨
4 19:30 西北西 4 2500m 27 94 995 周辺でしゅう雨
4 19:00 西 10 2500m 28 89 995 周辺でしゅう雨
4 18:30 西 7 3000m 29 84 995 周辺でしゅう雨
4 18:00 西南西 5 3000m 29 84 994 周辺でしゅう雨
4 17:30 西南西 5 3000m 29 84 994 煙霧
4 17:00 西 5 3000m 29 89 995 煙霧
4 16:30 西南西 7 3000m 28 89 995 煙霧
4 16:00 西 5 3000m 28 89 995 煙霧
4 15:30 西 6 3000m 28 89 995 煙霧
4 15:00 西 11 3000m 28 89 995 煙霧
4 14:30 西 8 2000m 28 94 995 煙霧
4 14:00 西 9 2000m 27 100 996
4 13:30 西南西 7 2500m 27 100 997
4 13:00 西 12 2500m 27 100 997 弱い雨
4 12:30 西南西 7 2500m 27 100 997 弱い雨
4 12:00 西南西 7 2200m 27 94 997 弱い雨
4 11:30 西 9 2200m 27 94 997
4 11:00 西南西 5 2100m 26 100 998
4 10:30 西南西 7 2200m 26 100 998
4 10:00 西南西 6 2200m 27 94 998
4 09:30 西南西 4 2100m 26 100 997 弱い雨
4 09:00 西南西 5 2500m 26 100 997
4 08:30 西南西 5 2500m 26 100 997
4 08:00 西南西 9 2200m 26 100 997
4 07:30 南西 5 2200m 26 100 997
4 07:00 南南西 5 2200m 25 100 997
4 06:30 南南西 4 1800m 25 100 997 弱い雷雨
4 06:00 7 1600m 24 100 996 雷雨
4 05:30 6 1500m 25 94 996 弱い雷雨
4 05:00 南南西 9 1200m 25 100 996 雷雨
4 04:30 12 1600m 26 100 995 雷雨
4 04:00 南南西 6 1800m 26 100 995
4 03:30 南南西 5 2100m 26 100 996
4 03:00 南南西 8 2100m 26 100 996 雷雨
4 02:30 南南西 5 2100m 26 100 997 雷雨
4 02:00 西南西 5 2200m 26 100 997 弱い雨
4 01:30 西南西 6 1500m 26 100 997
4 01:00 南南東 3 1500m 26 100 998
4 00:30 南南西 2 2500m 26 100 998 弱い雨
4 00:00 西南西 7 2000m 26 100 999
3 23:30 南南東 3 2500m 26 100 998 弱い雨
3 23:00 南南西 3 2500m 26 100 999 弱い雨
3 22:30 南南東 3 2500m 26 100 999 弱い雨
3 22:00 南南西 2 1800m 26 100 999
3 21:30 南西 6 2100m 26 100 999
3 21:00 南南東 2 2100m 26 100 998
3 20:30 2 2500m 26 100 998 弱い雨
3 20:00 3 2000m 26 100 998 弱い雨
3 19:30 4 2000m 26 100 998 弱い雨
3 19:00 南南西 6 2200m 27 94 998 煙霧
3 18:30 南南西 5 2000m 28 94 998 煙霧
3 18:00 南西 6 1500m 28 89 998 弱い雨
3 17:30 4 2500m 29 89 998 弱いしゅう雨
3 17:00 6 2500m 29 89 998 弱いしゅう雨
3 16:30 南西 4 3000m 31 75 998
3 16:00 南南西 5 5000m 31 75 998
3 15:30 南西 5 5000m 30 75 999 煙霧
3 15:00 南南西 4 4000m 31 70 999 煙霧
3 14:30 西南西 6 4000m 31 75 1000 煙霧
3 14:00 南西 4 4000m 31 75 1000 煙霧
3 13:30 南西 5 4000m 31 75 1000 煙霧
3 13:00 南西 7 4000m 30 79 1000 煙霧
3 12:30 4 4000m 30 79 1000 煙霧
3 12:00 6 3500m 31 75 1001 煙霧
3 11:30 南南西 6 3000m 28 89 1001 煙霧
3 11:00 南南西 6 3000m 30 79 1001 煙霧
3 10:30 南南西 5 3000m 31 79 1001 周辺でしゅう雨
3 10:00 南南西 5 3000m 29 89 1001 煙霧
3 09:30 5 3000m 29 89 1001 煙霧
3 09:00 6 3000m 29 89 1001 煙霧
3 08:30 4 3000m 28 94 1001 煙霧
3 08:00 4 1800m 28 89 1001 弱い雨
3 07:30 南南西 2 3000m 28 89 1001 煙霧
3 07:00 南南西 6 3000m 27 94 1001 煙霧
3 06:30 南南西 5 2200m 27 94 1000 弱い雨
3 06:00 4 2500m 27 94 1000 煙霧
3 05:30 南東 2 2500m 27 94 1000 煙霧
3 05:00 南南東 2 2500m 27 94 1000 弱い霧雨
3 04:30 南南東 3 2500m 27 94 1000 弱い雨
3 04:00 南南東 2 2500m 27 94 1000 煙霧
3 03:30 南南東 2 2500m 27 94 1000 周辺でしゅう雨
3 03:00 4 2500m 27 94 1001 煙霧
3 02:00 南東 5 2500m 27 89 1001 煙霧
3 01:30 南東 5 2500m 27 89 1001 煙霧
VABB 041930Z 24007G17KT 2200 -DZ FEW012 SCT018 FEW030CB OVC080 29/27 Q0995 TEMPO 1500 SHRA
VABB 041900Z 23008G18KT 2200 -RA FEW012 SCT018 FEW030CB OVC080 29/28 Q0994 TEMPO 1500 SHRA
VABB 041830Z 24012KT 2200 -RA FEW012 SCT018 FEW030CB OVC080 29/28 Q0995 TEMPO 1500 SHRA
VABB 041800Z 26008G18KT 2100 -RA SCT012 SCT018 FEW030CB OVC080 28/27 Q0995 TEMPO 1500 SHRA
VABB 041730Z 24005KT 1500 RA SCT012 SCT018 FEW030CB OVC080 28/27 Q0996 TEMPO 0800 +SHRA
VABB 041700Z 27009KT 3000 HZ SCT018 SCT025 FEW030CB OVC090 29/27 Q0996 NOSIG
VABB 041630Z 25012KT 3000 HZ SCT018 SCT025 FEW030CB OVC090 28/27 Q0996 NOSIG
VABB 041600Z 28011KT 3000 VCSH SCT018 SCT025 FEW030CB OVC090 28/26 Q0996 TEMPO 1500 SHRA
VABB 041530Z 27011KT 3000 HZ SCT015 SCT025 FEW030CB OVC090 28/27 Q0995 NOSIG
VABB 041500Z 28009KT 2500 HZ FEW012 SCT018 FEW030CB OVC090 28/26 Q0995 TEMPO 1500 SHRA
VABB 041430Z 28011KT 2500 -DZ FEW012 SCT018 FEW030CB OVC090 28/26 Q0995 TEMPO 1500 SHRA
VABB 041400Z 29008G18KT 2500 VCSH FEW012 SCT018 FEW030CB OVC090 27/26 Q0995 TEMPO 1500 SHRA
VABB 041330Z 27019G29KT 2500 VCSH FEW012 SCT018 FEW030CB OVC090 28/26 Q0995 TEMPO 1500 SHRA
VABB 041300Z 26014G24KT 3000 VCSH SCT015 SCT025 FEW030CB BKN090 29/26 Q0995 NOSIG
VABB 041230Z 24009G19KT 3000 VCSH SCT015 SCT025 FEW030CB BKN090 29/26 Q0994 TEMPO 1500 +SHRA
VABB 041200Z 25009G19KT 3000 HZ SCT015 SCT025 FEW030CB BKN090 29/26 Q0994 NOSIG
VABB 041130Z 26009G19KT 3000 HZ SCT015 SCT025 BKN090 29/27 Q0995 NOSIG
VABB 041100Z 25013KT 3000 HZ SCT018 SCT025 BKN090 28/26 Q0995 NOSIG
VABB 041030Z 26010G20KT 3000 HZ SCT018 SCT025 BKN090 28/26 Q0995 NOSIG
VABB 041000Z 26012G22KT 3000 HZ SCT018 FEW030CB BKN090 28/26 Q0995 NOSIG
VABB 040930Z 27021G31KT 3000 HZ SCT010 SCT018 FEW030CB OVC090 28/26 Q0995 NOSIG
VABB 040900Z 26016G26KT 2000 HZ SCT010 SCT018 FEW030CB OVC090 28/27 Q0995 NOSIG
VABB 040830Z 26018G28KT 2000 R27/2100 RA SCT010 SCT018 FEW030CB OVC090 27/27 Q0996 TEMPO 1600 +SHRA
VABB 040800Z 25014G24KT 2500 RA SCT010 SCT018 FEW030CB OVC090 27/27 Q0997 NOSIG
VABB 040730Z 26023G33KT 2500 -RA SCT010 SCT018 FEW030CB OVC090 27/27 Q0997 NOSIG
VABB 040700Z 24013G23KT 2500 -RA SCT010 SCT018 FEW030CB OVC090 27/27 Q0997 TEMPO 1500 SHRA
VABB 040630Z 25014G24KT 2200 -RA FEW010 SCT018 FEW030CB OVC090 27/26 Q0997 TEMPO 1500 SHRA
VABB 040600Z 28018G28KT 2200 RA SCT010 SCT018 FEW030CB OVC090 27/26 Q0997 TEMPO 1500 SHRA
VABB 040530Z 25010G20KT 2100 RA SCT010 SCT018 FEW030CB OVC090 26/26 Q0998 NOSIG
VABB 040500Z 25014G24KT 2200 RA FEW012 SCT018 FEW030CB OVC090 26/26 Q0998 NOSIG
VABB 040430Z 24011G21KT 2200 RA FEW012 SCT018 FEW030CB OVC090 27/26 Q0998 NOSIG
VABB 040400Z 25008G18KT 2100 -RA FEW012 SCT018 FEW030CB OVC090 26/26 Q0997 TEMPO 1500 SHRA
VABB 040330Z 25009G19KT 2500 RA FEW012 SCT018 FEW030CB OVC090 26/26 Q0997 TEMPO 1500 +SHRA
VABB 040300Z 25010G20KT 2500 RA FEW012 SCT018 FEW030CB OVC090 26/26 Q0997 TEMPO 1500 +SHRA
VABB 040230Z 24017G27KT 2200 RA FEW012 SCT018 FEW030CB OVC090 26/26 Q0997 TEMPO 0800 +SHRA
VABB 040200Z 22010KT 2200 RA SCT012 SCT018 FEW030CB OVC080 26/26 Q0997 TEMPO 0800 +SHRA
VABB 040130Z 21010G20KT 2200 RA SCT012 SCT018 FEW030CB OVC080 25/25 Q0997 TEMPO 0800 +SHRA
VABB 040100Z 21008G18KT 1800 -TSRA SCT012 SCT018 FEW030CB OVC080 25/25 Q0997 TEMPO 0800 +TSRA
VABB 040030Z 19014G24KT 1600 TSRA SCT012 SCT018 FEW030CB OVC080 24/24 Q0996 TEMPO 0800 +TSRA
VABB 040000Z 19012G22KT 1500 -TSRA SCT012 SCT018 FEW030CB OVC080 25/24 Q0996 TEMPO 0800 +SHRA
VABB 032330Z 20018G28KT 1200 R27/1300 TSRA SCT008 SCT015 FEW030CB OVC080 25/25 Q0996 TEMPO 0800 +TSRA
VABB 032300Z 19024G35KT 1600 TSRA SCT008 SCT015 FEW030CB OVC080 26/26 Q0995 TEMPO 0800 +TSRA
VABB 032230Z 20012G22KT 1800 RA SCT010 SCT015 FEW030CB OVC080 26/26 Q0995 TEMPO 1500 SHRA
VABB 032200Z 20009G19KT 2100 RA SCT010 SCT015 FEW030CB OVC080 26/26 Q0996 TEMPO 1500 SHRA
VABB 032130Z 21015KT 2100 TSRA SCT010 SCT015 FEW030CB OVC080 26/26 Q0996 TEMPO 1500 TSRA
VABB 032100Z 21010KT 2100 TSRA SCT010 SCT015 FEW030CB OVC080 26/26 Q0997 TEMPO 1500 TSRA
VABB 032030Z 24010KT 2200 -RA SCT008 SCT015 FEW030CB OVC080 26/26 Q0997 TEMPO 1500 SHRA
VABB 032000Z 24011KT 1500 RA SCT008 SCT015 FEW030CB OVC080 26/26 Q0997 TEMPO 0800 +SHRA
VABB 031930Z 16006KT 1500 RA SCT010 SCT015 FEW030CB OVC080 26/26 Q0998 TEMPO 0800 +SHRA
VABB 031900Z 21003KT 2500 -RA SCT010 SCT015 FEW030CB OVC080 26/26 Q0998 TEMPO 1500 SHRA
VABB 031830Z 25013KT 2000 RA SCT010 SCT015 FEW030CB OVC080 26/26 Q0999 TEMPO 1500 SHRA
VABB 031800Z 15005KT 2500 -RA FEW012 SCT018 FEW030CB OVC080 26/26 Q0998 TEMPO 1500 SHRA
VABB 031730Z 21005KT 2500 -RA FEW012 SCT018 FEW030CB OVC080 26/26 Q0999 TEMPO 1500 SHRA
VABB 031700Z 16006KT 2500 -RA FEW010 SCT018 FEW030CB OVC080 26/26 Q0999 TEMPO 1500 SHRA
VABB 031630Z 21004KT 1800 RA SCT012 SCT018 FEW030CB OVC080 26/26 Q0999 TEMPO 0800 SHRA
VABB 031600Z 22011KT 2100 RA SCT010 SCT015 FEW030CB OVC080 26/26 Q0999 TEMPO 1500 RA
VABB 031530Z 16004KT 2100 RA SCT010 SCT015 FEW030CB OVC080 26/26 Q0998 TEMPO 1500 RA
VABB 031500Z 19004KT 2500 -RA SCT015 FEW030CB OVC080 26/26 Q0998 TEMPO 1500 RA
VABB 031430Z 17006KT 2000 -RA FEW010 SCT015 FEW030CB OVC080 26/26 Q0998 TEMPO 1500 RA
VABB 031400Z 18007KT 2000 -RA FEW012 SCT015 FEW030CB BKN080 26/26 Q0998 TEMPO 1500 TSRA
VABB 031330Z 21012KT 2200 HZ FEW012 SCT015 FEW030CB BKN090 27/26 Q0998 TEMPO 1500 SHRA
VABB 031300Z 21010KT 2000 HZ FEW012 SCT015 FEW030CB BKN090 28/27 Q0998 TEMPO 1500 +RA
VABB 031230Z 22012KT 1500 R27/1700 -RA SCT012 SCT018 FEW030CB BKN080 28/26 Q0998 TEMPO 0800 +RA
VABB 031200Z 19008KT 2500 -SHRA FEW012 SCT018 FEW025TCU BKN090 29/27 Q0998 TEMPO 1500 SHRA
VABB 031130Z 18011KT 2500 -SHRA FEW012 SCT018 FEW025TCU BKN090 29/27 Q0998 TEMPO 1500 SHRA
VABB 031100Z 22008KT 3000 FEW012 SCT018 FEW025TCU BKN090 31/26 Q0998 TEMPO 1500 SHRA
VABB 031030Z 21009KT 5000 SCT018 SCT025 FEW025TCU BKN100 31/26 Q0998 TEMPO 3000 SHRA
VABB 031000Z 23010KT 5000 HZ SCT018 SCT025 FEW025TCU BKN100 30/25 Q0999 NOSIG
VABB 030930Z 21008G18KT 4000 HZ SCT015 SCT025 FEW025TCU BKN100 31/25 Q0999 NOSIG
VABB 030900Z 24012KT 4000 HZ SCT018 SCT025 BKN100 31/26 Q1000 BECMG 5000 HZ
VABB 030830Z 23008G18KT 4000 HZ SCT018 SCT025 FEW025TCU BKN100 31/26 Q1000 NOSIG
VABB 030800Z 22010G20KT 4000 HZ SCT018 FEW025TCU BKN100 31/26 Q1000 NOSIG
VABB 030730Z 23014G24KT 4000 HZ SCT015 FEW025TCU BKN090 30/26 Q1000 NOSIG
VABB 030700Z 18008G18KT 4000 HZ SCT015 FEW025TCU BKN090 30/26 Q1000 NOSIG
VABB 030630Z 19011KT 3500 HZ SCT015 SCT025 BKN090 31/26 Q1001 NOSIG
VABB 030600Z 21011G21KT 3000 HZ SCT015 FEW025TCU BKN090 28/26 Q1001 TEMPO 1500 SHRA
VABB 030530Z 21011G21KT 3000 HZ SCT015 FEW025TCU BKN090 30/26 Q1001 NOSIG
VABB 030500Z 21009KT 3000 VCSH FEW012 SCT015 BKN090 31/27 Q1001 TEMPO 1500 SHRA
VABB 030430Z 21009KT 3000 HZ SCT015 SCT025 BKN100 29/27 Q1001 NOSIG
VABB 030400Z 19010KT 3000 HZ SCT018 SCT025 BKN100 29/27 Q1001 NOSIG
VABB 030330Z 19011KT 3000 HZ SCT015 SCT025 BKN100 29/27 Q1001 NOSIG
VABB 030300Z 18008KT 3000 HZ SCT015 SCT025 BKN090 28/27 Q1001 TEMPO 1500 SHRA
VABB 030230Z 19008KT 1800 -RA SCT010 SCT018 BKN090 28/26 Q1001 TEMPO 1500 SHRA
VABB 030200Z 20004KT 3000 HZ SCT018 SCT025 BKN090 28/26 Q1001 NOSIG
VABB 030130Z 21012KT 3000 HZ SCT015 SCT025 BKN090 27/26 Q1001 NOSIG
VABB 030100Z 21010KT 2200 -RA SCT012 SCT018 BKN090 27/26 Q1000 TEMPO 1500 SHRA
VABB 030030Z 18007KT 2500 HZ SCT018 SCT025 BKN090 27/26 Q1000 NOSIG
VABB 030000Z 14004KT 2500 HZ SCT018 SCT025 BKN090 27/26 Q1000 NOSIG
VABB 022330Z 15004KT 2500 -DZ FEW012 SCT018 BKN090 27/26 Q1000 NOSIG
VABB 022300Z 15005KT 2500 -RA FEW012 SCT018 BKN090 27/26 Q1000 TEMPO 1500 RA
VABB 022230Z 15004KT 2500 HZ SCT018 BKN090 27/26 Q1000 NOSIG
VABB 022200Z 16004KT 2500 VCSH SCT018 BKN090 27/26 Q1000 TEMPO 1500 SHRA
VABB 022130Z 18007KT 2500 HZ SCT018 BKN090 27/26 Q1001 NOSIG
VABB 022030Z 14009KT 2500 HZ SCT018 BKN090 27/25 Q1001 NOSIG
VABB 022000Z 14010KT 2500 HZ SCT018 BKN090 27/25 Q1001 NOSIG